Time;durP1;ratioP1;P1;durP2;ratioP2;P2;SDS_P1;SDS_P2;PMS_P1;PMS_P2;Temp;Humidity;BMP_temperature;BMP_pressure;BME280_temperature;BME280_humidity;BME280_pressure;Samples;Min_cycle;Max_cycle;Signal;HPM_P1;HPM_P2
2022/04/07 00:01:06;;;;;;;3.30;1.88;;;9.20;99.90;;;;;;5028494;28;20029;-71
2022/04/07 00:03:32;;;;;;;5.78;2.03;;;9.30;99.90;;;;;;5028006;28;20136;-72
2022/04/07 00:05:58;;;;;;;3.70;2.00;;;9.30;99.90;;;;;;5026532;28;20044;-72
2022/04/07 00:08:23;;;;;;;3.72;2.00;;;9.40;99.90;;;;;;5020600;28;20030;-69
2022/04/07 00:10:50;;;;;;;3.85;2.00;;;9.40;99.90;;;;;;5026889;28;20037;-72
2022/04/07 00:13:16;;;;;;;3.80;2.10;;;9.30;99.90;;;;;;5026122;28;20080;-70
2022/04/07 00:15:42;;;;;;;2.90;1.92;;;9.30;99.90;;;;;;5019246;28;20076;-64
2022/04/07 00:18:08;;;;;;;4.88;2.10;;;9.30;99.90;;;;;;5027878;28;20029;-72
2022/04/07 00:20:34;;;;;;;3.95;1.98;;;9.20;99.90;;;;;;5024871;28;20419;-71
2022/04/07 00:23:00;;;;;;;5.03;2.17;;;9.20;99.90;;;;;;5023131;28;20046;-72
2022/04/07 00:25:26;;;;;;;4.38;2.15;;;9.20;99.90;;;;;;5028489;28;20084;-71
2022/04/07 00:27:53;;;;;;;5.63;2.40;;;9.10;99.90;;;;;;5025924;28;20041;-71
2022/04/07 00:30:20;;;;;;;4.53;2.08;;;9.10;99.90;;;;;;5016997;28;20038;-72
2022/04/07 00:32:47;;;;;;;4.57;2.33;;;9.00;99.90;;;;;;5025539;28;20046;-66
2022/04/07 00:35:14;;;;;;;4.00;2.03;;;9.00;99.90;;;;;;5027300;28;20033;-72
2022/04/07 00:37:39;;;;;;;4.13;2.10;;;9.00;99.90;;;;;;5025975;28;20041;-72
2022/04/07 00:40:10;;;;;;;2.80;1.77;;;9.00;99.90;;;;;;5017604;28;20025;-70
2022/04/07 00:42:50;;;;;;;3.83;2.08;;;8.90;99.90;;;;;;5007722;28;20406;-71
2022/04/07 00:45:17;;;;;;;4.20;1.85;;;9.00;99.90;;;;;;5007549;28;20069;-69
2022/04/07 00:47:44;;;;;;;4.25;1.88;;;9.00;99.90;;;;;;5026260;28;20026;-69
2022/04/07 00:50:11;;;;;;;2.88;1.85;;;9.00;99.90;;;;;;5021986;28;20051;-72
2022/04/07 00:52:43;;;;;;;2.60;1.65;;;8.90;99.90;;;;;;5009318;28;20389;-72
2022/04/07 00:55:14;;;;;;;3.88;1.50;;;8.90;99.90;;;;;;5027168;28;20064;-72
2022/04/07 00:57:42;;;;;;;2.28;1.27;;;8.90;99.90;;;;;;5027637;28;20034;-73
2022/04/07 01:00:10;;;;;;;3.33;1.50;;;8.90;99.90;;;;;;5025460;28;20037;-72
2022/04/07 01:02:36;;;;;;;2.30;1.25;;;8.90;99.90;;;;;;5028031;28;20080;-70
2022/04/07 01:05:04;;;;;;;3.92;1.40;;;8.80;99.90;;;;;;5026003;28;20037;-72
2022/04/07 01:07:32;;;;;;;3.55;1.77;;;8.80;99.90;;;;;;5003744;28;20064;-71
2022/04/07 01:10:01;;;;;;;3.53;1.63;;;8.80;99.90;;;;;;5026124;28;20048;-73
2022/04/07 01:12:26;;;;;;;2.90;1.40;;;8.70;99.90;;;;;;5022801;28;20029;-73
2022/04/07 01:15:04;;;;;;;2.08;1.30;;;8.70;99.90;;;;;;5026841;28;20342;-72
2022/04/07 01:17:30;;;;;;;2.58;1.15;;;8.80;99.90;;;;;;5022466;28;20068;-72
2022/04/07 01:19:56;;;;;;;2.13;1.27;;;8.80;99.90;;;;;;5008546;28;20121;-73
2022/04/07 01:22:23;;;;;;;2.47;1.33;;;8.90;99.90;;;;;;4998097;28;20120;-72
2022/04/07 01:24:49;;;;;;;2.25;1.08;;;8.90;99.90;;;;;;5008477;28;20034;-66
2022/04/07 01:27:16;;;;;;;4.05;1.40;;;8.90;99.90;;;;;;5020157;28;20064;-72
2022/04/07 01:29:42;;;;;;;1.75;1.02;;;8.90;99.90;;;;;;5020915;28;20022;-72
2022/04/07 01:32:20;;;;;;;2.00;1.13;;;8.90;99.90;;;;;;5018829;28;20033;-72
2022/04/07 01:34:46;;;;;;;2.85;1.50;;;8.90;99.90;;;;;;5026817;28;20091;-66
2022/04/07 01:37:12;;;;;;;3.40;1.40;;;8.90;99.90;;;;;;5023007;28;20429;-72
2022/04/07 01:39:41;;;;;;;4.45;1.48;;;8.90;99.90;;;;;;5008989;28;20057;-72
2022/04/07 01:42:13;;;;;;;4.78;1.20;;;8.90;99.90;;;;;;5025668;28;20056;-72
2022/04/07 01:44:42;;;;;;;2.40;1.27;;;9.00;99.90;;;;;;5025492;28;20041;-71
2022/04/07 01:47:12;;;;;;;1.70;1.10;;;9.00;99.90;;;;;;5021938;28;20541;-72
2022/04/07 01:49:40;;;;;;;2.60;1.13;;;8.90;99.90;;;;;;4994283;28;20045;-73
2022/04/07 01:52:07;;;;;;;1.63;0.98;;;8.90;99.90;;;;;;5030296;28;20453;-73
2022/04/07 01:54:34;;;;;;;2.97;1.00;;;9.00;99.90;;;;;;5012837;28;20128;-73
2022/04/07 01:57:01;;;;;;;2.00;1.10;;;9.00;99.90;;;;;;5027827;28;20497;-72
2022/04/07 01:59:27;;;;;;;2.08;1.08;;;8.90;99.90;;;;;;5031918;28;20021;-73
2022/04/07 02:01:53;;;;;;;1.55;1.00;;;8.90;99.90;;;;;;5020166;28;20030;-73
2022/04/07 02:04:19;;;;;;;2.08;1.33;;;8.80;99.90;;;;;;5030339;28;20092;-72
2022/04/07 02:06:45;;;;;;;2.47;1.40;;;8.70;99.90;;;;;;5028204;28;20041;-71
2022/04/07 02:09:10;;;;;;;2.65;1.50;;;8.70;99.90;;;;;;5030581;28;20017;-70
2022/04/07 02:11:36;;;;;;;3.50;1.38;;;8.70;99.90;;;;;;5026977;28;20032;-72
2022/04/07 02:14:02;;;;;;;2.58;1.40;;;8.70;99.90;;;;;;5030818;28;20530;-73
2022/04/07 02:16:30;;;;;;;3.45;1.90;;;8.70;99.90;;;;;;5029446;28;20047;-73
2022/04/07 02:18:56;;;;;;;2.90;1.60;;;8.70;99.90;;;;;;5030846;28;20056;-69
2022/04/07 02:21:22;;;;;;;2.63;1.40;;;8.60;99.90;;;;;;5025688;28;20922;-72
2022/04/07 02:23:48;;;;;;;4.22;1.40;;;8.50;99.90;;;;;;5030891;28;20033;-73
2022/04/07 02:26:16;;;;;;;3.15;1.45;;;8.40;99.90;;;;;;5023925;28;20030;-71
2022/04/07 02:28:42;;;;;;;3.15;1.80;;;8.40;99.90;;;;;;5009399;28;20032;-72
2022/04/07 02:31:08;;;;;;;3.75;1.30;;;8.40;99.90;;;;;;5027349;28;20085;-72
2022/04/07 02:33:35;;;;;;;3.97;1.50;;;8.40;99.90;;;;;;5030871;28;20049;-72
2022/04/07 02:36:05;;;;;;;3.20;1.50;;;8.40;99.90;;;;;;5026457;28;20032;-70
2022/04/07 02:38:31;;;;;;;2.42;1.40;;;8.30;99.90;;;;;;5013008;28;20537;-72
2022/04/07 02:40:57;;;;;;;3.05;1.58;;;8.40;99.90;;;;;;5024971;28;20116;-73
2022/04/07 02:43:23;;;;;;;2.90;1.38;;;8.40;99.90;;;;;;5027296;28;20072;-72
2022/04/07 02:45:48;;;;;;;3.33;1.30;;;8.40;99.90;;;;;;5026282;28;20275;-71
2022/04/07 02:48:14;;;;;;;2.38;1.20;;;8.50;99.90;;;;;;5024902;28;20041;-72
2022/04/07 02:50:39;;;;;;;3.33;1.52;;;8.50;99.90;;;;;;5026863;28;20037;-69
2022/04/07 02:53:05;;;;;;;2.30;1.23;;;8.50;99.90;;;;;;5030241;28;20147;-71
2022/04/07 02:55:31;;;;;;;2.63;1.10;;;8.60;99.90;;;;;;5026912;28;20021;-70
2022/04/07 02:58:00;;;;;;;2.30;1.30;;;8.60;99.90;;;;;;5027476;28;20528;-72
2022/04/07 03:00:26;;;;;;;2.95;1.20;;;8.60;99.90;;;;;;5023435;28;20034;-70
2022/04/07 03:02:51;;;;;;;2.17;0.90;;;8.60;99.90;;;;;;5018977;28;20596;-66
2022/04/07 03:05:17;;;;;;;3.55;1.48;;;8.70;99.90;;;;;;5011427;28;20108;-74
2022/04/07 03:07:43;;;;;;;2.65;1.00;;;8.60;99.90;;;;;;5029534;28;20033;-73
2022/04/07 03:10:09;;;;;;;2.80;1.10;;;8.70;99.90;;;;;;5027405;28;20042;-72
2022/04/07 03:12:35;;;;;;;1.70;1.05;;;8.70;99.90;;;;;;5011332;28;20075;-72
2022/04/07 03:15:01;;;;;;;3.42;0.95;;;8.70;99.90;;;;;;5026101;28;20041;-71
2022/04/07 03:17:27;;;;;;;2.30;1.02;;;8.70;99.90;;;;;;5025959;28;20033;-72
2022/04/07 03:19:53;;;;;;;2.63;0.80;;;8.60;99.90;;;;;;5024303;28;20026;-65
2022/04/07 03:22:19;;;;;;;2.20;0.93;;;8.70;99.90;;;;;;5020745;28;20034;-70
2022/04/07 03:24:48;;;;;;;1.55;1.00;;;8.70;99.90;;;;;;5025206;28;20037;-71
2022/04/07 03:27:14;;;;;;;1.92;0.90;;;8.70;99.90;;;;;;5018195;28;20030;-73
2022/04/07 03:29:40;;;;;;;1.45;0.70;;;8.70;99.90;;;;;;5026190;28;20036;-70
2022/04/07 03:32:06;;;;;;;1.95;0.88;;;8.70;99.90;;;;;;5020867;28;20033;-72
2022/04/07 03:34:36;;;;;;;1.35;0.63;;;8.70;99.90;;;;;;5029952;28;20377;-73
2022/04/07 03:37:03;;;;;;;1.35;0.73;;;8.70;99.90;;;;;;5025898;28;20352;-72
2022/04/07 03:39:29;;;;;;;0.65;0.35;;;8.80;99.90;;;;;;5030018;28;20041;-72
2022/04/07 03:41:55;;;;;;;0.98;0.47;;;8.80;99.90;;;;;;5028158;28;20034;-65
2022/04/07 03:44:20;;;;;;;1.23;0.50;;;8.80;99.90;;;;;;5018109;28;20041;-69
2022/04/07 03:46:46;;;;;;;1.02;0.60;;;8.80;99.90;;;;;;5013750;28;20065;-74
2022/04/07 03:49:12;;;;;;;2.50;0.50;;;8.80;99.90;;;;;;5020692;28;20029;-73
2022/04/07 03:51:37;;;;;;;1.13;0.40;;;8.80;99.90;;;;;;5017652;28;20028;-72
2022/04/07 03:54:03;;;;;;;2.03;0.60;;;8.90;99.90;;;;;;5023474;28;20033;-72
2022/04/07 03:56:29;;;;;;;0.90;0.50;;;8.80;99.90;;;;;;5020223;28;20555;-72
2022/04/07 03:58:55;;;;;;;1.90;0.60;;;8.80;99.90;;;;;;5017784;28;20041;-66
2022/04/07 04:01:22;;;;;;;1.25;0.63;;;8.90;99.90;;;;;;5011457;28;20029;-69
2022/04/07 04:03:47;;;;;;;4.75;0.60;;;8.90;99.90;;;;;;5020216;28;20054;-72
2022/04/07 04:06:13;;;;;;;1.38;0.70;;;8.90;99.90;;;;;;5018177;28;20045;-73
2022/04/07 04:08:38;;;;;;;0.70;0.30;;;8.90;99.90;;;;;;5022192;28;20434;-72
2022/04/07 04:11:04;;;;;;;1.40;0.50;;;9.00;99.90;;;;;;5019782;28;20140;-73
2022/04/07 04:13:31;;;;;;;1.58;0.45;;;9.00;99.90;;;;;;5022653;28;20065;-70
2022/04/07 04:15:57;;;;;;;0.70;0.30;;;9.00;99.90;;;;;;5024540;28;20057;-65
2022/04/07 04:18:23;;;;;;;1.05;0.50;;;9.00;99.90;;;;;;5024892;28;20029;-70
2022/04/07 04:20:49;;;;;;;2.47;0.40;;;9.10;99.90;;;;;;5022847;28;20438;-70
2022/04/07 04:23:14;;;;;;;0.55;0.30;;;9.10;99.90;;;;;;5025321;28;20399;-70
2022/04/07 04:25:40;;;;;;;1.00;0.40;;;9.00;99.90;;;;;;5026933;28;20030;-69
2022/04/07 04:28:06;;;;;;;2.00;0.43;;;9.00;99.90;;;;;;5025763;28;20033;-71
2022/04/07 04:30:32;;;;;;;0.85;0.40;;;9.00;99.90;;;;;;5022269;28;20032;-70
2022/04/07 04:32:57;;;;;;;10.93;0.85;;;9.00;99.90;;;;;;5022731;28;20045;-66
2022/04/07 04:35:23;;;;;;;1.23;0.60;;;8.90;99.90;;;;;;5027337;28;20069;-73
2022/04/07 04:37:49;;;;;;;0.95;0.50;;;8.90;99.90;;;;;;5023028;28;20390;-72
2022/04/07 04:40:15;;;;;;;0.60;0.32;;;9.00;99.90;;;;;;5022513;28;20765;-69
2022/04/07 04:42:41;;;;;;;3.38;0.80;;;9.00;99.90;;;;;;5027963;28;20799;-70
2022/04/07 04:45:07;;;;;;;1.05;0.52;;;9.00;99.90;;;;;;5022399;28;20135;-74
2022/04/07 04:47:34;;;;;;;0.75;0.40;;;9.00;99.90;;;;;;5027820;28;20059;-72
2022/04/07 04:49:59;;;;;;;0.95;0.50;;;9.00;99.90;;;;;;5023078;28;20156;-66
2022/04/07 04:52:25;;;;;;;0.98;0.40;;;9.00;99.90;;;;;;5026036;28;20611;-72
2022/04/07 04:54:51;;;;;;;2.08;0.50;;;9.00;99.90;;;;;;5023715;28;20029;-72
2022/04/07 04:57:17;;;;;;;2.75;0.70;;;9.00;99.90;;;;;;5008829;28;20500;-73
2022/04/07 04:59:42;;;;;;;1.00;0.45;;;9.10;99.90;;;;;;5027227;28;20096;-72
2022/04/07 05:02:08;;;;;;;0.63;0.35;;;9.20;99.90;;;;;;5004987;28;20061;-73
2022/04/07 05:04:35;;;;;;;1.48;0.50;;;9.30;99.90;;;;;;5027473;28;20109;-73
2022/04/07 05:07:01;;;;;;;1.02;0.38;;;9.30;99.90;;;;;;5015381;28;20080;-66
2022/04/07 05:09:27;;;;;;;0.80;0.40;;;9.30;99.90;;;;;;5022501;28;20026;-70
2022/04/07 05:11:52;;;;;;;1.23;0.52;;;9.40;99.90;;;;;;5025720;28;20477;-74
2022/04/07 05:14:18;;;;;;;2.00;0.45;;;9.40;99.90;;;;;;5025198;28;20026;-69
2022/04/07 05:16:43;;;;;;;2.58;0.50;;;9.40;99.90;;;;;;5026177;28;20447;-71
2022/04/07 05:19:09;;;;;;;0.82;0.30;;;9.40;99.90;;;;;;5022490;28;20103;-72
2022/04/07 05:21:35;;;;;;;2.15;0.40;;;9.50;99.90;;;;;;5027247;28;20034;-72
2022/04/07 05:24:00;;;;;;;0.57;0.28;;;9.40;99.90;;;;;;5029014;28;20038;-71
2022/04/07 05:26:26;;;;;;;1.42;0.40;;;9.50;99.90;;;;;;5023508;28;20030;-70
2022/04/07 05:28:52;;;;;;;3.60;0.47;;;9.40;99.90;;;;;;5024380;28;20459;-72
2022/04/07 05:31:17;;;;;;;1.35;0.50;;;9.50;99.90;;;;;;5029532;28;20415;-75
2022/04/07 05:33:43;;;;;;;0.73;0.40;;;9.50;99.90;;;;;;5029576;28;20037;-70
2022/04/07 05:36:09;;;;;;;1.35;0.47;;;9.40;99.90;;;;;;5031113;28;20506;-71
2022/04/07 05:38:35;;;;;;;0.85;0.50;;;9.50;99.90;;;;;;5030384;28;20392;-73
2022/04/07 05:41:01;;;;;;;1.60;0.50;;;9.40;99.90;;;;;;5020478;28;20042;-64
2022/04/07 05:43:27;;;;;;;1.10;0.43;;;9.50;99.90;;;;;;5028989;28;20794;-72
2022/04/07 05:45:52;;;;;;;0.73;0.47;;;9.40;99.90;;;;;;5023500;28;20033;-72
2022/04/07 05:48:18;;;;;;;1.60;0.35;;;9.50;99.90;;;;;;5030239;28;20718;-72
2022/04/07 05:50:44;;;;;;;0.90;0.40;;;9.50;99.90;;;;;;5026994;28;20037;-73
2022/04/07 05:53:10;;;;;;;0.85;0.30;;;9.50;99.90;;;;;;5031088;28;20052;-73
2022/04/07 05:55:37;;;;;;;0.90;0.40;;;9.50;99.90;;;;;;5028395;28;20030;-73
2022/04/07 05:58:04;;;;;;;1.00;0.30;;;9.50;99.90;;;;;;5031255;28;20037;-68
2022/04/07 06:00:30;;;;;;;1.05;0.50;;;9.40;99.90;;;;;;5027640;28;20124;-69
2022/04/07 06:02:56;;;;;;;0.73;0.43;;;9.40;99.90;;;;;;5023979;28;20068;-69
2022/04/07 06:05:21;;;;;;;1.73;0.38;;;9.50;99.90;;;;;;5022235;28;20222;-71
2022/04/07 06:07:47;;;;;;;2.75;0.20;;;9.50;99.90;;;;;;5030695;28;20025;-72
2022/04/07 06:10:13;;;;;;;0.52;0.28;;;9.60;99.90;;;;;;5028390;28;20064;-74
2022/04/07 06:12:42;;;;;;;0.60;0.30;;;9.60;99.90;;;;;;5030837;28;20490;-72
2022/04/07 06:15:12;;;;;;;0.73;0.30;;;9.60;99.90;;;;;;5026658;28;20056;-73
2022/04/07 06:17:40;;;;;;;0.82;0.30;;;9.70;99.90;;;;;;5026531;28;20156;-74
2022/04/07 06:20:12;;;;;;;3.28;0.38;;;9.70;99.90;;;;;;5024987;28;20570;-66
2022/04/07 06:22:39;;;;;;;0.63;0.30;;;9.70;99.90;;;;;;5024662;28;20037;-71
2022/04/07 06:25:05;;;;;;;0.55;0.25;;;9.70;99.90;;;;;;5021146;28;20072;-65
2022/04/07 06:27:34;;;;;;;0.52;0.28;;;9.70;99.90;;;;;;5025366;28;20033;-70
2022/04/07 06:30:00;;;;;;;0.52;0.38;;;9.80;99.90;;;;;;5028792;28;20053;-71
2022/04/07 06:32:25;;;;;;;2.25;0.30;;;9.80;99.90;;;;;;5026563;28;20587;-70
2022/04/07 06:34:51;;;;;;;2.33;0.30;;;9.90;99.90;;;;;;5027939;28;20025;-69
2022/04/07 06:37:17;;;;;;;0.93;0.30;;;10.00;99.90;;;;;;5005666;28;20022;-71
2022/04/07 06:39:42;;;;;;;0.45;0.30;;;10.00;99.90;;;;;;5029104;28;20033;-71
2022/04/07 06:42:08;;;;;;;0.30;0.10;;;10.10;99.90;;;;;;5028078;28;20033;-66
2022/04/07 06:44:33;;;;;;;1.23;0.40;;;10.30;99.90;;;;;;5028574;28;20068;-68
2022/04/07 06:46:59;;;;;;;0.57;0.28;;;10.40;99.90;;;;;;5027367;28;20071;-72
2022/04/07 06:49:25;;;;;;;0.88;0.20;;;10.50;99.90;;;;;;5024432;28;20032;-74
2022/04/07 06:51:50;;;;;;;0.40;0.20;;;10.70;99.90;;;;;;5020741;28;20025;-71
2022/04/07 06:54:16;;;;;;;0.75;0.30;;;10.90;99.90;;;;;;5026964;28;20083;-72
2022/04/07 06:56:42;;;;;;;0.20;0.13;;;10.80;99.90;;;;;;5029441;28;20076;-73
2022/04/07 06:59:07;;;;;;;0.45;0.17;;;10.80;99.90;;;;;;5023714;28;20025;-66
2022/04/07 07:01:33;;;;;;;0.40;0.10;;;10.70;99.90;;;;;;5027824;28;20545;-72
2022/04/07 07:03:58;;;;;;;1.08;0.38;;;10.80;99.90;;;;;;5029671;28;20148;-71
2022/04/07 07:06:24;;;;;;;0.75;0.30;;;10.80;99.90;;;;;;5027514;28;20037;-72
2022/04/07 07:08:50;;;;;;;1.38;0.30;;;10.70;99.90;;;;;;5028414;28;20458;-70
2022/04/07 07:11:16;;;;;;;3.45;0.20;;;10.70;99.90;;;;;;5024042;28;20027;-69
2022/04/07 07:13:42;;;;;;;2.13;0.25;;;10.60;99.90;;;;;;5028934;28;20026;-71
2022/04/07 07:16:07;;;;;;;0.45;0.20;;;10.70;99.90;;;;;;5029736;28;20355;-67
2022/04/07 07:18:33;;;;;;;0.60;0.20;;;10.70;99.90;;;;;;5028588;28;20029;-72
2022/04/07 07:20:59;;;;;;;1.65;0.25;;;10.70;99.90;;;;;;5024295;28;20033;-74
2022/04/07 07:23:25;;;;;;;0.20;0.10;;;10.80;99.90;;;;;;5026208;28;20037;-72
2022/04/07 07:25:51;;;;;;;0.40;0.10;;;10.70;99.90;;;;;;5026379;28;20497;-76
2022/04/07 07:28:16;;;;;;;1.55;0.10;;;10.70;99.90;;;;;;5025511;28;20033;-73
2022/04/07 07:30:42;;;;;;;0.65;0.10;;;10.70;99.90;;;;;;5024705;28;20076;-77
2022/04/07 07:33:08;;;;;;;0.28;0.10;;;10.70;99.90;;;;;;5028469;28;20033;-69
2022/04/07 07:35:35;;;;;;;0.40;0.20;;;10.80;99.90;;;;;;5026896;28;20102;-74
2022/04/07 07:38:02;;;;;;;0.63;0.20;;;10.90;99.90;;;;;;5030118;28;20033;-76
2022/04/07 07:40:32;;;;;;;0.35;0.20;;;11.00;99.90;;;;;;5027170;28;20033;-71
2022/04/07 07:43:00;;;;;;;3.25;0.30;;;11.00;99.90;;;;;;5023135;28;20033;-77
2022/04/07 07:45:31;;;;;;;0.50;0.20;;;11.00;99.90;;;;;;5024760;28;20053;-70
2022/04/07 07:47:56;;;;;;;;;;;11.20;99.90;;;;;;5026072;28;20390;-75
2022/04/07 07:50:22;;;;;;;0.47;0.20;;;11.30;99.90;;;;;;5028680;28;19916;-78
2022/04/07 07:52:48;;;;;;;1.08;0.30;;;11.20;99.90;;;;;;5026144;28;20029;-77
2022/04/07 07:55:15;;;;;;;1.20;0.05;;;11.20;99.90;;;;;;5028441;28;20037;-75
2022/04/07 07:57:41;;;;;;;0.38;0.20;;;11.30;99.90;;;;;;5023009;28;20025;-75
2022/04/07 08:00:09;;;;;;;2.42;0.20;;;11.30;99.90;;;;;;5007400;28;20494;-74
2022/04/07 08:02:36;;;;;;;0.68;0.30;;;11.40;99.90;;;;;;5025046;28;20152;-69
2022/04/07 08:05:03;;;;;;;0.63;0.10;;;11.50;99.90;;;;;;5025653;28;20113;-74
2022/04/07 08:07:29;;;;;;;0.63;0.20;;;11.50;99.90;;;;;;5028674;28;20029;-75
2022/04/07 08:09:56;;;;;;;0.40;0.10;;;11.60;99.90;;;;;;5019666;28;20501;-75
2022/04/07 08:12:26;;;;;;;0.82;0.28;;;11.50;99.90;;;;;;5007650;28;20025;-75
2022/04/07 08:14:52;;;;;;;0.40;0.20;;;11.50;99.90;;;;;;5025417;28;20120;-77
2022/04/07 08:17:19;;;;;;;1.08;0.10;;;11.50;99.90;;;;;;5027686;28;20140;-73
2022/04/07 08:19:45;;;;;;;0.20;0.10;;;11.50;99.90;;;;;;5025438;28;20448;-73
2022/04/07 08:22:10;;;;;;;0.40;0.20;;;11.50;99.90;;;;;;5029311;28;20105;-67
2022/04/07 08:24:36;;;;;;;0.30;0.10;;;11.50;99.90;;;;;;5023422;28;20034;-76
2022/04/07 08:27:04;;;;;;;1.10;0.20;;;11.40;99.90;;;;;;5022084;28;20084;-79
2022/04/07 08:29:30;;;;;;;1.65;0.20;;;11.40;99.90;;;;;;5027615;28;20041;-75
2022/04/07 08:31:56;;;;;;;0.30;0.20;;;11.40;99.90;;;;;;5026522;28;20037;-74
2022/04/07 08:34:22;;;;;;;2.60;0.15;;;11.40;99.90;;;;;;5027713;28;20061;-80
2022/04/07 08:36:48;;;;;;;0.30;0.20;;;11.50;99.90;;;;;;5027335;28;20017;-76
2022/04/07 08:39:14;;;;;;;0.65;0.22;;;11.50;99.90;;;;;;5028402;28;20116;-69
2022/04/07 08:41:44;;;;;;;3.70;0.30;;;11.60;99.90;;;;;;5028107;28;20108;-70
2022/04/07 08:44:10;;;;;;;0.57;0.20;;;11.60;99.90;;;;;;5028455;28;20040;-70
2022/04/07 08:46:35;;;;;;;1.65;0.20;;;11.70;99.90;;;;;;5025492;28;20179;-72
2022/04/07 08:49:04;;;;;;;3.05;0.25;;;11.80;99.90;;;;;;5028898;28;20029;-75
2022/04/07 08:51:30;;;;;;;1.23;0.43;;;11.90;99.90;;;;;;5019652;28;20117;-71
2022/04/07 08:53:56;;;;;;;1.10;0.20;;;11.90;99.90;;;;;;5022632;28;20449;-73
2022/04/07 08:56:23;;;;;;;1.73;0.10;;;12.00;99.90;;;;;;5024833;28;20037;-74
2022/04/07 08:58:49;;;;;;;1.10;0.20;;;11.90;99.90;;;;;;5021965;28;20499;-72
2022/04/07 09:01:15;;;;;;;0.30;0.10;;;12.00;99.90;;;;;;5016023;28;20754;-70
2022/04/07 09:03:43;;;;;;;1.35;0.20;;;11.90;99.90;;;;;;5026322;28;20045;-79
2022/04/07 09:06:10;;;;;;;0.75;0.20;;;11.90;99.90;;;;;;5026108;28;20072;-71
2022/04/07 09:08:38;;;;;;;0.40;0.20;;;11.90;99.90;;;;;;5022172;28;20625;-76
2022/04/07 09:11:06;;;;;;;0.40;0.17;;;11.90;99.90;;;;;;5025926;28;20029;-75
2022/04/07 09:13:39;;;;;;;0.80;0.50;;;11.90;99.90;;;;;;5025041;28;20386;-77
2022/04/07 09:16:12;;;;;;;0.90;0.20;;;11.90;99.90;;;;;;5026550;28;20043;-76
2022/04/07 09:18:38;;;;;;;0.95;0.20;;;12.00;99.90;;;;;;5022796;28;20052;-79
2022/04/07 09:21:05;;;;;;;0.50;0.13;;;12.10;99.90;;;;;;5025421;28;20125;-78
2022/04/07 09:23:41;;;;;;;2.58;0.20;;;12.10;99.90;;;;;;5008964;28;20451;-75
2022/04/07 09:26:16;;;;;;;0.73;0.20;;;12.10;99.90;;;;;;5022624;28;20029;-75
2022/04/07 09:28:42;;;;;;;0.50;0.20;;;12.10;99.90;;;;;;5022843;28;20032;-74
2022/04/07 09:31:16;;;;;;;0.95;0.20;;;12.10;99.90;;;;;;5025191;28;20041;-81
2022/04/07 09:33:51;;;;;;;0.82;0.25;;;12.20;99.90;;;;;;5022629;28;20034;-76
2022/04/07 09:36:21;;;;;;;1.30;0.20;;;12.20;99.90;;;;;;5009349;28;20045;-68
2022/04/07 09:38:55;;;;;;;2.50;0.22;;;12.10;99.90;;;;;;5019248;28;20053;-76
2022/04/07 09:41:23;;;;;;;0.40;0.10;;;12.10;99.90;;;;;;5020801;28;20104;-74
2022/04/07 09:43:50;;;;;;;0.70;0.20;;;12.00;99.90;;;;;;5026353;28;20164;-75
2022/04/07 09:46:18;;;;;;;0.40;0.15;;;12.00;99.90;;;;;;5027659;28;20041;-69
2022/04/07 09:49:04;;;;;;;1.63;0.13;;;12.10;99.90;;;;;;5025579;28;20053;-72
2022/04/07 09:51:46;;;;;;;0.47;0.10;;;12.10;99.90;;;;;;5023261;28;20390;-72
2022/04/07 09:54:14;;;;;;;1.48;0.13;;;12.20;99.90;;;;;;5020736;28;20073;-77
2022/04/07 09:56:40;;;;;;;0.47;0.20;;;12.20;99.90;;;;;;5027178;28;20405;-76
2022/04/07 09:59:07;;;;;;;0.52;0.20;;;12.00;99.90;;;;;;5020394;28;20029;-74
2022/04/07 10:01:39;;;;;;;0.75;0.22;;;12.00;99.90;;;;;;5020489;28;20042;-77
2022/04/07 10:04:07;;;;;;;0.52;0.20;;;11.90;99.90;;;;;;5017447;28;20072;-76
2022/04/07 10:06:33;;;;;;;2.22;0.10;;;11.70;99.90;;;;;;5024336;28;20021;-78
2022/04/07 10:09:04;;;;;;;5.05;0.28;;;11.60;99.90;;;;;;5024915;28;20505;-75
2022/04/07 10:11:31;;;;;;;0.50;0.17;;;11.50;99.90;;;;;;5027588;28;20037;-72
2022/04/07 10:13:57;;;;;;;0.77;0.10;;;11.30;99.90;;;;;;5028163;28;20034;-76
2022/04/07 10:16:24;;;;;;;1.20;0.20;;;11.30;99.90;;;;;;5027019;28;20147;-71
2022/04/07 10:19:01;;;;;;;0.35;0.20;;;11.30;99.90;;;;;;5022741;28;20037;-76
2022/04/07 10:22:02;;;;;;;4.18;0.22;;;11.40;99.90;;;;;;5021119;28;20028;-75
2022/04/07 10:24:31;;;;;;;;;;;11.40;99.90;;;;;;4929239;29;20114;-75
2022/04/07 10:27:01;;;;;;;1.55;0.20;;;11.50;99.90;;;;;;5009839;28;20365;-79
2022/04/07 10:29:28;;;;;;;0.60;0.20;;;11.70;99.90;;;;;;5021628;28;20104;-76
2022/04/07 10:32:12;;;;;;;0.95;0.68;;;11.70;99.90;;;;;;5029916;28;20429;-73
2022/04/07 10:34:53;;;;;;;3.83;0.40;;;11.80;99.90;;;;;;5020610;28;20639;-75
2022/04/07 10:37:30;;;;;;;1.48;0.30;;;11.90;99.90;;;;;;5016964;28;20026;-69
2022/04/07 10:39:56;;;;;;;2.78;0.20;;;12.00;99.90;;;;;;5020008;28;20139;-67
2022/04/07 10:43:13;;;;;;;2.05;0.10;;;12.10;99.90;;;;;;5016684;28;20486;-70
2022/04/07 10:45:40;;;;;;;0.45;0.17;;;12.10;99.90;;;;;;5024345;28;20345;-77
2022/04/07 10:48:25;;;;;;;1.75;0.20;;;12.10;99.90;;;;;;5022418;28;20580;-72
2022/04/07 10:51:00;;;;;;;0.10;0.10;;;12.20;99.90;;;;;;5016866;28;20359;-72
2022/04/07 10:53:33;;;;;;;0.60;0.10;;;12.20;99.90;;;;;;5021808;28;20033;-74
2022/04/07 10:56:03;;;;;;;0.50;0.20;;;12.30;99.90;;;;;;5026321;28;20032;-74
2022/04/07 10:58:44;;;;;;;2.78;0.30;;;12.50;99.90;;;;;;5026695;28;20530;-70
2022/04/07 11:01:33;;;;;;;2.55;0.20;;;12.50;99.90;;;;;;5007841;28;20684;-72
2022/04/07 11:04:20;;;;;;;0.30;0.10;;;12.50;99.90;;;;;;5024475;28;20090;-72
2022/04/07 11:07:15;;;;;;;1.45;0.10;;;12.50;99.90;;;;;;5029232;28;20041;-71
2022/04/07 11:09:46;;;;;;;1.45;0.20;;;12.50;99.90;;;;;;5016614;28;20033;-69
2022/04/07 11:12:16;;;;;;;0.40;0.17;;;12.50;99.90;;;;;;5029688;28;20026;-72
2022/04/07 11:14:47;;;;;;;1.33;0.30;;;12.60;99.90;;;;;;5024050;28;20895;-71
2022/04/07 11:17:37;;;;;;;2.00;0.10;;;12.70;99.90;;;;;;5020874;28;20512;-71
2022/04/07 11:20:08;;;;;;;0.43;0.10;;;12.80;99.90;;;;;;5013366;28;20045;-71
2022/04/07 11:23:10;;;;;;;0.95;0.10;;;12.90;99.90;;;;;;5029167;28;20099;-72
2022/04/07 11:25:37;;;;;;;2.30;0.10;;;12.90;99.90;;;;;;5020481;28;20044;-71
2022/04/07 11:28:19;;;;;;;1.35;0.10;;;12.80;99.90;;;;;;5016319;28;20163;-72
2022/04/07 11:30:55;;;;;;;0.57;0.10;;;12.80;99.90;;;;;;5021234;28;20033;-71
2022/04/07 11:35:58;;;;;;;0.30;0.05;;;12.90;99.90;;;;;;5021633;28;20062;-70
2022/04/07 11:38:31;;;;;;;0.15;0.10;;;12.90;99.90;;;;;;5022346;28;20029;-71
2022/04/07 11:41:01;;;;;;;0.00;0.00;;;13.00;99.90;;;;;;5019283;28;20040;-73
2022/04/07 11:43:27;;;;;;;1.97;0.00;;;13.10;99.90;;;;;;5023621;28;20087;-69
2022/04/07 11:45:54;;;;;;;0.20;0.10;;;13.20;99.90;;;;;;5022620;28;20022;-80
2022/04/07 11:48:24;;;;;;;0.20;0.05;;;13.30;99.90;;;;;;5026372;28;20125;-68
2022/04/07 11:50:50;;;;;;;0.35;0.10;;;13.50;99.90;;;;;;5025247;28;20112;-71
2022/04/07 11:53:17;;;;;;;1.55;0.08;;;13.30;99.90;;;;;;5014098;28;20041;-70
2022/04/07 11:55:43;;;;;;;1.25;0.10;;;13.00;99.90;;;;;;5023777;28;20077;-71
2022/04/07 11:58:15;;;;;;;1.08;0.08;;;12.90;99.90;;;;;;5028050;28;20486;-70
2022/04/07 12:00:41;;;;;;;0.43;0.32;;;12.90;99.90;;;;;;5020104;28;20605;-73
2022/04/07 12:03:06;;;;;;;0.55;0.10;;;12.90;99.90;;;;;;5028516;28;20054;-73
2022/04/07 12:05:39;;;;;;;4.40;0.10;;;13.00;99.90;;;;;;5022802;28;20037;-77
2022/04/07 12:08:11;;;;;;;0.20;0.10;;;13.10;99.90;;;;;;5024162;28;20026;-71
2022/04/07 12:10:41;;;;;;;0.35;0.13;;;13.20;99.90;;;;;;5026339;28;20060;-71
2022/04/07 12:13:07;;;;;;;;;;;13.30;99.90;;;;;;5020686;28;20041;-72
2022/04/07 12:15:37;;;;;;;3.95;0.10;;;13.20;99.90;;;;;;5020162;28;19909;-70
2022/04/07 12:18:08;;;;;;;0.80;0.10;;;13.10;99.90;;;;;;5026544;28;20029;-68
2022/04/07 12:20:35;;;;;;;2.08;0.68;;;13.10;99.90;;;;;;5028041;28;20029;-70
2022/04/07 12:23:26;;;;;;;0.73;0.20;;;13.10;99.90;;;;;;5022721;28;20055;-75
2022/04/07 12:26:01;;;;;;;1.45;0.80;;;13.10;99.90;;;;;;5023692;28;20036;-70
2022/04/07 12:28:38;;;;;;;0.65;0.10;;;13.10;99.90;;;;;;5026147;28;20034;-70
2022/04/07 12:31:11;;;;;;;0.88;0.17;;;13.10;99.90;;;;;;5020993;28;20065;-70
2022/04/07 12:33:48;;;;;;;1.67;0.10;;;13.10;99.90;;;;;;5023775;28;20033;-72
2022/04/07 12:36:15;;;;;;;3.25;0.15;;;13.00;99.90;;;;;;5025544;28;20029;-71
2022/04/07 12:38:56;;;;;;;2.72;0.10;;;13.10;99.90;;;;;;5026642;28;20018;-73
2022/04/07 12:41:22;;;;;;;0.10;0.10;;;13.10;99.90;;;;;;5022367;28;20413;-65
2022/04/07 12:43:50;;;;;;;0.80;0.00;;;13.00;99.90;;;;;;5020411;28;20096;-73
2022/04/07 12:46:20;;;;;;;1.95;0.17;;;13.10;99.90;;;;;;5028763;28;20171;-72
2022/04/07 12:49:04;;;;;;;2.03;0.10;;;13.00;99.90;;;;;;5001500;28;20614;-74
2022/04/07 12:51:34;;;;;;;0.30;0.08;;;13.00;99.90;;;;;;5023320;28;20029;-70
2022/04/07 12:54:12;;;;;;;6.15;0.30;;;13.00;99.90;;;;;;5027720;28;20050;-76
2022/04/07 12:56:40;;;;;;;0.57;0.13;;;13.00;99.90;;;;;;5024518;28;20036;-75
2022/04/07 12:59:14;;;;;;;2.63;0.00;;;13.00;99.90;;;;;;5012462;28;20029;-77
2022/04/07 13:01:41;;;;;;;4.47;0.13;;;13.00;99.90;;;;;;5012572;28;20034;-76